This is the latest recevied weather packets stored in our database for station/object KF7ROW. If no packets are shown the sender has not sent any weather packets the latest 10 day(s).
| Time | Temp. | Humidity | Pressure | Rain* | Wind** | Luminosity | Snow |
|---|---|---|---|---|---|---|---|
| 1778169890 | 12.78° C | 83% | 1024.9 hPa | 0 mm | - | 187 W/m² | - |
| 1778169585 | 12.78° C | 83% | 1024.8 hPa | 0 mm | - | 190 W/m² | - |
| 1778169282 | 12.78° C | 83% | 1024.9 hPa | 0 mm | - | 197 W/m² | - |
| 1778168979 | 12.78° C | 83% | 1024.7 hPa | 0 mm | - | 203 W/m² | - |
| 1778168675 | 12.78° C | 83% | 1024.8 hPa | 0 mm | - | 211 W/m² | - |
| 1778168373 | 12.78° C | 83% | 1024.9 hPa | 0 mm | - | 194 W/m² | - |
| 1778168069 | 12.22° C | 83% | 1024.8 hPa | 0 mm | - | 179 W/m² | - |
| 1778167766 | 12.22° C | 84% | 1024.8 hPa | 0 mm | - | 165 W/m² | - |
| 1778167462 | 12.22° C | 84% | 1024.8 hPa | 0 mm | - | 163 W/m² | - |
| 1778167158 | 12.22° C | 84% | 1024.9 hPa | 0 mm | - | 142 W/m² | - |
| 1778166855 | 12.22° C | 84% | 1025.1 hPa | 0 mm | - | 130 W/m² | - |
| 1778166552 | 12.22° C | 84% | 1025.1 hPa | 0 mm | - | 128 W/m² | - |
| 1778166248 | 12.22° C | 84% | 1025 hPa | 0 mm | - | 120 W/m² | - |
| 1778165945 | 12.22° C | 84% | 1024.8 hPa | 0 mm | - | 134 W/m² | - |
| 1778165641 | 12.22° C | 84% | 1024.9 hPa | 0 mm | - | 115 W/m² | - |
| 1778165338 | 12.22° C | 84% | 1024.9 hPa | 0 mm | - | 98 W/m² | - |
| 1778165035 | 11.67° C | 84% | 1024.9 hPa | 0 mm | - | 101 W/m² | - |
| 1778164732 | 11.67° C | 85% | 1024.9 hPa | 0 mm | - | 80 W/m² | - |
| 1778164429 | 11.67° C | 85% | 1024.8 hPa | 0 mm | - | 83 W/m² | - |
| 1778164125 | 11.67° C | 86% | 1024.8 hPa | 0 mm | - | 79 W/m² | - |
| 1778163822 | 11.67° C | 87% | 1024.9 hPa | 0 mm | - | 62 W/m² | - |
| 1778163519 | 11.67° C | 90% | 1025 hPa | 0 mm | - | 52 W/m² | - |
| 1778163215 | 11.67° C | 91% | 1024.7 hPa | 0 mm | - | 58 W/m² | - |
| 1778162911 | 11.67° C | 92% | 1024.8 hPa | 0 mm | - | 48 W/m² | - |
| 1778162608 | 11.67° C | 93% | 1024.7 hPa | 0 mm | - | 40 W/m² | - |
* Rain latest hour (hover to see other rain measurements)
** Current wind speed in m/s (hover to see current wind gust speed)